LiveATC.Net - Listen to live air traffic control over the Internet! Contact for advertising information

ICAO: KSMO  IATA: SMO   Airport: Santa Monica Municipal Airport
City: Santa Monica   State/Province: California
Country: United States   Continent: North America
KSMO METAR Weather: KSMO 070551Z AUTO 00000KT 10SM CLR 20/16 A3003 RMK AO2 SLP168 T02000156 10233 20200 53003 $
KSMO Flight Activity (FlightAware)
KSMO Airport Info   (AirNav) (iFlightPlanner)
KSMO VFR Sectional Chart   (iFlightPlanner) 
KSMO IFR Low Chart   (iFlightPlanner) 
KSMO Tower
Feed Status: UP   Listeners: 2
Listen right in your browser - requires Flash (in browser, requires Flash)
Click here to listen with your own player (launches your MP3 player)
KSMO Tower Audio Archives
Santa Monica Tower120.100

Feed sponsored by: Proteus Air Services


Unauthorized use prohibited. See Terms of Service

Find LiveATC Audio Streams

Airport/ARTCC Code

(e.g., 124.400, 128.75)
Site-wide search

Browse LiveATC Feeds
LiveATC Coverage Map
Top 50 LiveATC Feeds
Bad Weather Areas

Offer a LiveATC Feed
Press Inquiries

LiveATC on iPhone
LiveATC on Android

LiveATC Mobile
(Mobile browser)

ATC Audio Archives
Interesting Recordings

LiveATC Forums

Home Page
Make a Donation
LiveATC Bookstore

Terms of Use
Privacy Policy

ATC/Radar Sites
U.S. ARTCC Freqs
Canadian Air Freqs


FAA Airport Status
Nat'l Airspace Status
Arrival Demand Charts

Server Software By:

Please make a donation to help us keep growing!